Bookmark and Share
Track history (hours):
 

Simcha

Last reported at 2014-Apr-13 03:29 UTC. Time now 2014-Apr-24 06:25 UTC.
Position N 51°54' E 005°34'.
Warning: this ship's position is 11 days out of date.

Length 10 m.

Type: Ship. MMSI: 244780014.

NotesDate/timePositionNaut miles runAvg speedWind from/ knotsBaromVisibWave heightAir tempDewpointWater temp
2014-Apr-13 03:29N 51°54' E 005°34'1 0.8
2014-Apr-13 02:12N 51°54' E 005°32'0 0.0
2014-Apr-13 01:32N 51°54' E 005°32'0 0.0
2014-Apr-13 00:32N 51°54' E 005°32'0 0.0
2014-Apr-12 21:19N 51°54' E 005°32'0 0.6
2014-Apr-12 20:29N 51°54' E 005°32'4 4.6
2014-Apr-12 19:33N 51°55' E 005°26'5 4.6
2014-Apr-12 18:29N 51°58' E 005°19'4 4.3
2014-Apr-12 17:33N 51°60' E 005°13'6 6.4
2014-Apr-12 16:33N 52°04' E 005°06'12 6.0
2014-Apr-12 14:32N 52°16' E 005°01'6 6.0
2014-Apr-12 13:33N 52°21' E 004°58'2 2.1
2014-Apr-12 12:34N 52°22' E 005°01'7 6.8
2014-Apr-12 11:34N 52°26' E 005°11'7 6.9
2014-Apr-12 10:33N 52°30' E 005°20'5 4.1
2014-Apr-12 09:25N 52°32' E 005°26'6 6.7
2014-Apr-12 08:33N 52°37' E 005°31'55 2.2
2014-Apr-11 07:15N 53°14' E 006°39'4 5.7
2014-Apr-11 06:32N 53°16' E 006°45'5 5.5
2014-Apr-11 05:34N 53°19' E 006°53'2 2.2
2014-Apr-11 04:33N 53°19' E 006°57'0 0.0
2014-Apr-11 03:33N 53°19' E 006°57'0 0.0
2014-Apr-11 02:33N 53°19' E 006°57'0 0.4
2014-Apr-11 01:34N 53°19' E 006°56'0 0.1
2014-Apr-11 00:33N 53°19' E 006°56'0 0.0
2014-Apr-10 23:33N 53°19' E 006°56'0 0.0
2014-Apr-10 22:33N 53°19' E 006°56'0 0.0
2014-Apr-10 21:33N 53°19' E 006°56'0 0.0
2014-Apr-10 20:33N 53°19' E 006°56'0 0.0
2014-Apr-10 19:32N 53°19' E 006°56'0 0.0
2014-Apr-10 18:33N 53°19' E 006°56'0 0.0
2014-Apr-10 17:33N 53°19' E 006°56'0 0.0
2014-Apr-10 16:33N 53°19' E 006°56'0 0.0
2014-Apr-10 15:33N 53°19' E 006°56'0 0.0
2014-Apr-10 14:33N 53°19' E 006°56'0 0.2
2014-Apr-10 13:33N 53°19' E 006°56'0 0.1
2014-Apr-10 12:34N 53°19' E 006°56'0 0.0
2014-Apr-10 11:34N 53°19' E 006°56'0 0.0
2014-Apr-10 10:33N 53°19' E 006°56'0 0.3
2014-Apr-10 09:33N 53°19' E 006°56'0 0.0
2014-Apr-10 08:34N 53°19' E 006°56'0 0.0
2014-Apr-10 07:34N 53°19' E 006°56'0 0.2
2014-Apr-10 06:33N 53°19' E 006°56'3 2.6
2014-Apr-10 05:33N 53°21' E 006°59'8 8.2
2014-Apr-10 04:33N 53°28' E 006°50'1 0.7
2014-Apr-10 03:34N 53°27' E 006°50'0 0.0
2014-Apr-10 02:33N 53°27' E 006°50'0 0.0
2014-Apr-10 01:34N 53°27' E 006°50'0 0.0
2014-Apr-10 00:34N 53°27' E 006°50'0 0.0
2014-Apr-09 23:33N 53°27' E 006°50'0 0.0
2014-Apr-09 22:33N 53°27' E 006°50'0 0.0
2014-Apr-09 21:34N 53°27' E 006°50'0 0.0
2014-Apr-09 20:34N 53°27' E 006°50'0 0.0
2014-Apr-09 19:34N 53°27' E 006°50'0 0.0
2014-Apr-09 18:34N 53°27' E 006°50'0 0.0
2014-Apr-09 17:34N 53°27' E 006°50'0 0.0
2014-Apr-09 16:33N 53°27' E 006°50'0 0.0
2014-Apr-09 15:33N 53°27' E 006°50'0 0.0
2014-Apr-09 14:33N 53°27' E 006°50'0 0.0
2014-Apr-09 13:34N 53°27' E 006°50'0 0.0
2014-Apr-09 12:34N 53°27' E 006°50'0 0.0
2014-Apr-09 11:34N 53°27' E 006°50'0 0.0
2014-Apr-09 10:34N 53°27' E 006°50'0 0.0
2014-Apr-09 09:34N 53°27' E 006°50'0 0.0
2014-Apr-09 08:33N 53°27' E 006°50'0 0.0
2014-Apr-09 07:34N 53°27' E 006°50'0 0.0
2014-Apr-09 06:34N 53°27' E 006°50'0 0.0
2014-Apr-09 05:34N 53°27' E 006°50'0 0.1
2014-Apr-09 04:33N 53°27' E 006°50'0 0.0
2014-Apr-09 03:34N 53°27' E 006°50'0 0.0
2014-Apr-09 02:33N 53°27' E 006°50'0 0.0
2014-Apr-09 01:34N 53°27' E 006°50'0 0.0
2014-Apr-09 00:34N 53°27' E 006°50'0 0.0
2014-Apr-08 23:34N 53°27' E 006°50'2 2.0
2014-Apr-08 22:33N 53°27' E 006°53'7 6.8
2014-Apr-08 21:34N 53°21' E 006°59'3 2.9
2014-Apr-08 20:33N 53°19' E 006°56'0 0.1
2014-Apr-08 19:33N 53°19' E 006°56'0 0.0
2014-Apr-08 18:34N 53°19' E 006°56'4 3.7
2014-Apr-08 17:33N 53°18' E 006°50'5 4.8
2014-Apr-08 16:32N 53°16' E 006°43'51 3.3
2014-Apr-08 01:12N 52°46' E 005°35'5 7.2
2014-Apr-08 00:31N 52°41' E 005°34'99 4.9
2014-Apr-07 04:33N 51°13' E 006°44'  

Dump ship's entire track history

sailing weather and tide predictions

Simcha — PE7688 — position and weather